Marshall Hall, Maryland
Current Conditions -  °F | °C
As of 3:09 AM on Tuesday 27 Jan 2015 (Local Time) from KDAA Reporting Station
Overcast Overcast  
Wind Chill: 19°   Ceiling: 5500
Heat Index: 28°   Visibility: 10mi
Dew Point: 23°   Wind: 10mph
Humidity: 80%   Direction: 320°NW
Pressure: 29.75"   Gusts: NA
Location:  38.6499°N, 77.0865°W
Report Text: KDAA 270809Z AUTO 32009KT 10SM FEW016 SCT034 BKN055 OVC100 M02/M05 A2975 RMK AO2 UPE0810
Loading
Personal Weather Stations






























Interactive Weather Map New forecast layout! Learn more

10-Day Weather Forecast

Advertisements
Track Severe Weather on mobile